Latest Weather Observations for Braidwood

IDN60801

Issued at 7:05 am EDT Wednesday 26 November 2014 (issued every 30 minutes, with the page automatically refreshed every 10 minutes)

About weather observations | Map of weather stations | Latest weather observations for NSW | Other Formats
Station Details ID: 069132 Name: BRAIDWOOD RACECOURSE AWS Lat: -35.43 Lon: 149.78 Height: 665.2 m
Data from the previous 72 hours. | See also: Recent months at Braidwood
Date/Time
EDT
Temp
°C
App
Temp
°C
Dew
Point
Rel
Hum
%
Delta-T
°C
Wind Press
QNH
hPa
Press
MSL
hPa
Rain
since 9 am
mm
Dir
 
Spd
km/h
Gust
km/h
Spd
kts
Gust
kts
26/07:00am 10.2 10.1 9.4 95 0.4 CALM 0 0 0 0 1020.3 1018.8 0.0
26/06:30am 9.4 9.1 8.6 95 0.4 CALM 0 0 0 0 1020.2 1018.7 0.0
26/06:00am 8.0 7.3 6.9 93 0.5 CALM 0 0 0 0 1020.0 1018.5 0.0
26/05:30am 8.2 7.5 7.0 92 0.6 CALM 0 0 0 0 1019.8 1018.2 0.0
26/05:00am 9.4 9.0 8.2 92 0.6 CALM 0 0 0 0 1019.6 1018.0 0.0
26/04:30am 9.7 8.6 8.5 92 0.6 NNE 4 6 2 3 1019.3 1017.7 0.0
26/04:00am 10.0 8.5 8.3 89 0.9 NE 6 9 3 5 1019.4 1017.8 0.0
26/03:30am 11.0 9.7 9.1 88 1.0 NE 6 7 3 4 1019.7 1018.1 0.0
26/03:00am 11.7 10.4 9.8 88 1.0 NE 7 11 4 6 1019.8 1018.2 0.0
26/02:30am 11.8 10.7 9.9 88 1.0 NE 6 9 3 5 1020.0 1018.5 0.0
26/02:00am 11.2 9.8 8.9 86 1.2 NE 6 9 3 5 1020.3 1018.8 0.0
26/01:30am 11.9 11.0 9.1 83 1.5 NNE 4 7 2 4 1020.7 1019.1 0.0
26/01:00am 12.4 11.2 9.6 83 1.5 NE 6 13 3 7 1021.0 1019.4 0.0
26/12:30am 12.7 11.5 9.7 82 1.6 ENE 6 9 3 5 1021.3 1019.8 0.0
26/12:00am 12.7 10.9 9.5 81 1.7 NE 9 17 5 9 1021.2 1019.6 0.0
 
Date/Time
EDT
Temp
°C
App
Temp
°C
Dew
Point
Rel
Hum
%
Delta-T
°C
Wind Press
QNH
hPa
Press
MSL
hPa
Rain
since 9 am
mm
Dir
 
Spd
km/h
Gust
km/h
Spd
kts
Gust
kts
25/11:30pm 12.9 11.6 10.1 83 1.5 ENE 7 11 4 6 1021.4 1019.9 0.0
25/11:00pm 12.6 11.3 10.0 84 1.4 ENE 7 11 4 6 1021.5 1020.0 0.0
25/10:30pm 12.7 11.4 9.9 83 1.5 E 7 13 4 7 1021.5 1020.0 0.0
25/10:00pm 13.0 11.3 10.0 82 1.6 E 9 15 5 8 1021.4 1019.9 0.0
25/09:30pm 13.1 10.3 9.9 81 1.7 E 15 17 8 9 1021.0 1019.4 0.0
25/09:00pm 13.1 10.7 9.9 81 1.7 E 13 17 7 9 1020.7 1019.1 0.0
25/08:30pm 13.3 10.9 9.9 80 1.8 E 13 17 7 9 1020.1 1018.6 0.0
25/08:00pm 13.6 11.2 10.0 79 1.9 ESE 13 19 7 10 1019.8 1018.2 0.0
25/07:30pm 14.2 11.8 10.2 77 2.2 ESE 13 20 7 11 1019.4 1017.8 0.0
25/07:00pm 14.6 11.1 10.2 75 2.4 ESE 19 22 10 12 1018.6 1017.1 0.0
25/06:30pm 16.3 12.9 10.6 69 3.1 ESE 19 26 10 14 1017.9 1016.3 0.0
25/06:00pm 17.4 13.9 10.8 65 3.7 E 20 28 11 15 1017.4 1015.8 0.0
25/05:30pm 18.5 15.1 11.1 62 4.2 ESE 20 26 11 14 1016.9 1015.3 0.0
25/05:00pm 19.2 14.5 12.0 63 4.1 ESE 28 35 15 19 1016.5 1014.9 0.0
25/04:30pm 20.6 17.1 12.3 59 4.8 ESE 22 32 12 17 1016.3 1014.7 0.0
25/04:00pm 20.9 16.9 11.8 56 5.2 ESE 24 35 13 19 1016.0 1014.3 0.0
25/03:30pm 23.7 17.9 -4.4 15 12.2 WNW 17 26 9 14 1015.6 1014.0 0.0
25/03:00pm 23.9 20.1 -0.4 20 11.4 NNW 9 17 5 9 1015.8 1014.1 0.0
25/02:30pm 22.8 17.9 -3.5 17 11.5 W 13 22 7 12 1015.9 1014.2 0.0
25/02:00pm 22.7 19.2 -1.4 20 11.0 NNW 7 13 4 7 1016.0 1014.3 0.0
25/01:30pm 22.2 16.3 -2.5 19 11.0 W 19 28 10 15 1016.0 1014.3 0.0
25/01:00pm 21.9 16.6 -3.5 18 11.0 W 15 28 8 15 1016.0 1014.3 0.0
25/12:30pm 21.8 15.8 -1.5 21 10.5 W 20 35 11 19 1016.2 1014.6 0.0
25/12:00pm 21.3 17.0 -1.9 21 10.3 WNW 11 22 6 12 1016.2 1014.6 0.0
25/11:30am 20.3 14.6 -4.0 19 10.3 W 17 26 9 14 1016.0 1014.3 0.0
25/11:00am 20.2 15.3 -3.4 20 10.1 WNW 13 26 7 14 1015.5 1013.9 0.0
25/10:30am 19.0 15.0 -2.0 24 9.2 W 9 19 5 10 1015.8 1014.1 0.0
25/10:00am 19.1 12.6 -2.5 23 9.3 WNW 22 30 12 16 1015.5 1013.9 0.0
25/09:30am 17.8 14.3 5.4 44 6.2 NW 13 20 7 11 1015.5 1013.9 0.0
25/09:00am 16.9 13.7 4.9 45 5.9 NW 11 17 6 9 1015.2 1013.6 3.8
25/08:30am 16.9 13.8 7.3 53 5.0 NW 13 20 7 11 1014.7 1013.1 3.8
25/08:00am 15.1 12.5 7.6 61 3.9 WNW 11 19 6 10 1014.3 1012.6 3.8
25/07:30am 15.2 12.5 7.3 59 4.0 NW 11 17 6 9 1013.8 1012.2 3.8
25/07:00am 14.7 12.2 8.4 66 3.3 WNW 11 15 6 8 1013.2 1011.5 3.8
25/06:30am 14.9 13.8 11.9 82 1.7 WNW 9 13 5 7 1012.3 1010.7 3.8
25/06:00am 15.7 14.9 13.0 84 1.5 NW 9 13 5 7 1011.6 1009.9 3.8
25/05:30am 15.2 15.1 13.2 88 1.1 WNW 6 9 3 5 1011.1 1009.4 3.8
25/05:00am 15.4 15.1 13.4 88 1.2 WNW 7 13 4 7 1010.2 1008.5 3.8
25/04:30am 14.9 14.5 13.1 89 1.0 NW 7 17 4 9 1009.9 1008.2 3.8
25/04:00am 15.1 14.4 13.3 89 1.0 NW 9 15 5 8 1009.7 1008.0 3.8
25/03:30am 15.1 14.4 13.1 88 1.1 NNW 9 15 5 8 1009.4 1007.6 3.8
25/03:00am 15.2 14.6 13.4 89 1.0 NNW 9 19 5 10 1009.1 1007.4 3.6
25/02:30am 15.1 14.7 13.0 87 1.2 NNW 7 15 4 8 1008.8 1007.1 3.6
25/02:00am 15.2 14.8 13.1 87 1.2 NNW 7 13 4 7 1009.0 1007.3 3.6
25/01:30am 15.2 14.9 13.2 88 1.1 N 7 15 4 8 1009.0 1007.3 3.6
25/01:00am 14.9 14.8 13.3 90 0.9 NNW 6 13 3 7 1009.7 1008.0 3.6
25/12:30am 15.6 16.4 13.6 88 1.2 NW 2 11 1 6 1010.0 1008.3 3.6
25/12:00am 15.6 16.9 14.0 90 0.9 CALM 0 6 0 3 1011.5 1009.8 3.6
 
Date/Time
EDT
Temp
°C
App
Temp
°C
Dew
Point
Rel
Hum
%
Delta-T
°C
Wind Press
QNH
hPa
Press
MSL
hPa
Rain
since 9 am
mm
Dir
 
Spd
km/h
Gust
km/h
Spd
kts
Gust
kts
24/11:30pm 16.1 12.7 13.6 85 1.5 W 24 39 13 21 1012.6 1010.9 3.4
24/11:00pm 18.5 18.9 15.4 82 1.9 NW 7 13 4 7 1011.6 1009.9 0.0
24/10:30pm 18.3 18.9 15.2 82 1.9 NNW 6 9 3 5 1011.2 1009.5 0.0
24/10:00pm 18.2 18.7 15.5 84 1.6 NNW 7 11 4 6 1011.4 1009.7 0.0
24/09:30pm 17.1 18.6 14.6 85 1.5 CALM 0 0 0 0 1011.6 1009.9 0.0
24/09:00pm 18.0 19.7 15.1 83 1.7 CALM 0 0 0 0 1011.4 1009.7 0.0
24/08:30pm 19.0 20.7 15.3 79 2.2 CALM 0 0 0 0 1011.2 1009.5 0.0
24/08:00pm 19.8 21.7 15.7 77 2.5 CALM 0 0 0 0 1011.0 1009.3 0.0
24/07:30pm 20.4 22.3 15.8 75 2.8 CALM 0 0 0 0 1010.8 1009.2 0.0
24/07:00pm 20.7 22.5 15.5 72 3.2 CALM 0 6 0 3 1010.3 1008.6 0.0
24/06:30pm 21.1 22.0 15.0 68 3.7 NNE 4 9 2 5 1009.8 1008.1 0.0
24/06:00pm 21.3 21.7 15.2 68 3.7 NNE 7 13 4 7 1009.8 1008.1 0.0
24/05:30pm 21.1 20.3 15.2 69 3.6 NE 13 19 7 10 1010.6 1008.9 0.0
24/05:00pm 21.4 22.4 15.3 68 3.7 NNE 4 7 2 4 1011.3 1009.6 0.0
24/04:30pm 20.3 19.9 15.1 72 3.2 W 11 20 6 11 1011.9 1010.2 0.0
24/04:00pm 20.8 19.4 14.5 67 3.8 W 15 20 8 11 1011.8 1010.1 0.0
24/03:30pm 20.9 19.3 15.0 69 3.6 WSW 17 24 9 13 1011.9 1010.2 0.0
24/03:00pm 22.6 21.2 14.4 60 5.0 W 15 20 8 11 1012.3 1010.7 0.0
24/02:30pm 24.5 22.7 12.1 46 7.3 W 13 20 7 11 1012.6 1010.9 0.0
24/02:00pm 25.5 22.7 11.3 41 8.3 W 17 22 9 12 1012.8 1011.1 0.0
24/01:30pm 26.8 24.9 10.5 36 9.4 NW 11 19 6 10 1012.6 1010.9 0.0
24/01:00pm 27.9 27.0 10.6 34 10.1 NW 6 17 3 9 1012.6 1010.9 0.0
24/12:30pm 27.5 26.2 11.1 36 9.6 W 9 15 5 8 1013.1 1011.4 0.0
24/12:00pm 27.1 25.7 10.8 36 9.5 NW 9 22 5 12 1013.7 1012.1 0.0
24/11:30am 27.8 27.4 13.0 40 8.9 W 7 19 4 10 1014.4 1012.7 0.0
24/11:00am 25.9 25.2 11.3 40 8.5 NW 6 13 3 7 1014.8 1013.2 0.0
24/10:30am 25.3 24.0 11.1 41 8.2 WNW 9 15 5 8 1015.0 1013.4 0.0
24/10:00am 24.9 23.9 12.2 45 7.5 WNW 9 15 5 8 1015.1 1013.5 0.0
24/09:30am 23.9 23.0 12.5 49 6.7 WSW 9 15 5 8 1015.1 1013.5 0.0
24/09:00am 23.5 21.1 12.5 50 6.5 WSW 17 24 9 13 1014.9 1013.3 0.2
24/08:30am 22.6 20.2 12.8 54 5.8 W 17 26 9 14 1015.5 1013.9 0.2
24/08:00am 19.6 20.7 15.7 78 2.4 NW 4 7 2 4 1015.8 1014.1 0.2
24/07:30am 18.1 19.5 15.4 84 1.6 W 2 9 1 5 1015.5 1013.9 0.2
24/07:00am 16.5 18.2 15.2 92 0.8 CALM 0 0 0 0 1016.1 1014.5 0.2
24/06:30am 16.0 17.5 14.7 92 0.8 CALM 0 0 0 0 1016.2 1014.6 0.2
24/06:00am 15.8 16.8 14.3 91 0.9 SSW 2 9 1 5 1016.6 1015.0 0.2
24/05:30am 16.3 17.4 14.7 90 0.9 N 2 6 1 3 1017.4 1015.8 0.0
24/05:00am 16.4 16.7 14.4 88 1.2 W 6 22 3 12 1017.5 1015.9 0.0
24/04:30am 16.2 15.8 14.2 88 1.2 SSE 9 13 5 7 1016.0 1014.3 0.0
24/04:00am 16.3 17.1 13.6 84 1.6 NE 2 15 1 8 1017.0 1015.4 0.0
24/03:30am 16.5 15.1 13.4 82 1.8 WSW 13 19 7 10 1017.7 1016.1 0.0
24/03:00am 16.1 17.1 14.3 89 1.1 WSW 2 9 1 5 1016.1 1014.5 0.0
24/02:30am 16.3 17.3 14.3 88 1.2 N 2 7 1 4 1016.3 1014.7 0.0
24/02:00am 16.4 17.7 14.2 87 1.3 CALM 0 0 0 0 1017.0 1015.4 0.0
24/01:30am 16.0 16.8 13.8 87 1.3 ESE 2 11 1 6 1016.3 1014.7 0.0
24/01:00am 16.5 17.8 14.0 85 1.5 CALM 0 0 0 0 1017.1 1015.5 0.0
24/12:30am 16.6 17.4 13.7 83 1.7 ESE 2 7 1 4 1016.7 1015.1 0.0
24/12:00am 16.7 17.5 13.8 83 1.7 ESE 2 7 1 4 1016.7 1015.1 0.0
 
Date/Time
EDT
Temp
°C
App
Temp
°C
Dew
Point
Rel
Hum
%
Delta-T
°C
Wind Press
QNH
hPa
Press
MSL
hPa
Rain
since 9 am
mm
Dir
 
Spd
km/h
Gust
km/h
Spd
kts
Gust
kts
23/11:30pm 16.3 17.1 13.8 85 1.5 S 2 7 1 4 1016.5 1014.9 0.0
23/11:00pm 16.1 15.5 13.6 85 1.5 SE 9 13 5 7 1015.6 1014.0 0.0
23/10:30pm 16.6 15.8 14.1 85 1.5 SSE 11 13 6 7 1015.9 1014.2 0.0
23/10:00pm 17.0 16.4 14.5 85 1.5 SSE 11 15 6 8 1015.8 1014.1 0.0
23/09:30pm 17.3 17.1 14.8 85 1.5 SE 9 13 5 7 1015.4 1013.8 0.0
23/09:00pm 17.3 17.3 15.3 88 1.2 SSE 9 11 5 6 1015.4 1013.8 0.0
23/08:30pm 17.3 17.6 14.6 84 1.6 SSE 6 7 3 4 1015.8 1014.1 0.0
23/08:00pm 18.4 18.8 15.3 82 1.9 SE 7 11 4 6 1016.2 1014.6 0.0
23/07:30pm 19.1 19.5 15.4 79 2.2 ESE 7 11 4 6 1016.2 1014.6 0.0
23/07:00pm 20.0 19.7 15.4 75 2.8 SSE 11 15 6 8 1014.7 1013.1 0.0
23/06:30pm 20.4 19.6 15.2 72 3.2 SE 13 17 7 9 1014.3 1012.6 0.0
23/06:00pm 21.9 20.9 15.5 67 3.9 SE 15 22 8 12 1013.6 1012.0 0.0
23/05:30pm 23.3 21.7 16.4 65 4.3 SE 20 28 11 15 1013.3 1011.6 0.0
23/05:00pm 24.0 21.1 16.0 61 5.0 ESE 26 33 14 18 1012.8 1011.1 0.0
23/04:30pm 25.3 22.6 15.6 55 6.0 SE 24 35 13 19 1012.4 1010.8 0.0
23/04:00pm 26.8 22.0 11.7 39 8.9 ESE 28 37 15 20 1012.3 1010.7 0.0
23/03:30pm 28.0 23.2 10.2 33 10.3 ESE 26 37 14 20 1012.0 1010.3 0.0
23/03:18pm 30.6 27.3 6.5 22 13.3 S 13 24 7 13 1012.1 1010.5 0.0
23/03:00pm 36.9 32.6 7.0 16 17.1 WNW 19 32 10 17 1011.8 1010.1 0.0
23/02:35pm 36.0 29.8 6.2 16 16.8 WNW 28 48 15 26 1012.1 1010.5 0.0
23/02:30pm 36.5 30.0 6.6 16 17.0 WNW 30 44 16 24 1012.2 1010.6 0.0
23/02:00pm 36.6 31.9 7.6 17 16.8 W 22 35 12 19 1012.6 1010.9 0.0
23/01:30pm 36.1 31.7 7.2 17 16.5 NW 20 37 11 20 1012.9 1011.2 0.0
23/01:00pm 35.5 29.6 7.6 18 16.0 NW 28 46 15 25 1013.3 1011.6 0.0
23/12:54pm 35.2 29.1 6.5 17 16.2 NW 28 46 15 25 1013.2 1011.5 0.0
23/12:30pm 34.9 29.3 7.1 18 15.8 NW 26 37 14 20 1013.4 1011.8 0.0
23/12:00pm 33.5 32.7 9.5 23 14.1 N 4 17 2 9 1013.6 1012.0 0.0
23/11:30am 32.1 30.6 8.4 23 13.6 NW 6 9 3 5 1014.0 1012.4 0.0
23/11:00am 30.9 29.1 8.0 24 13.0 N 7 13 4 7 1014.4 1012.7 0.0
23/10:30am 30.9 29.4 9.2 26 12.5 N 7 17 4 9 1014.5 1012.8 0.0
23/10:00am 28.9 27.4 9.1 29 11.3 N 7 13 4 7 1014.5 1012.8 0.0
23/09:30am 26.3 25.2 10.5 37 9.1 NW 7 13 4 7 1014.8 1013.2 0.0
23/09:00am 24.1 23.6 12.1 47 7.0 NNW 6 9 3 5 1014.7 1013.1 0.2
23/08:30am 21.0 21.0 11.3 54 5.5 N 2 6 1 3 1014.5 1012.8 0.2
23/08:00am 17.7 18.4 12.2 70 3.1 CALM 0 0 0 0 1014.5 1012.8 0.2
23/07:30am 16.0 16.4 11.2 73 2.7 CALM 0 0 0 0 1014.4 1012.7 0.2

Other Formats:

Comma delimited format used in spreadsheet applications
http://www.bom.gov.au/fwo/IDN60801/IDN60801.94927.axf

JavaScript Object Notation format (JSON) in row-major order
http://www.bom.gov.au/fwo/IDN60801/IDN60801.94927.json